KPZQ Airport (Presque Isle County) Information

FAA: PZQ - ICAO: KPZQ

KPZQ Airport Location

State Michigan
County Presque Isle
City Rogers City
KPZQ Airport is 1 miles south of Rogers City, MI.
Latitude 45-24-25.5000N
Longitude 083-48-46.3000W
Elevation 670ft

KPZQ Airport METARs

METAR KPZQ 060615Z AUTO 32003KT 10SM SCT006 BKN017 OVC025 15/14 A2995 RMK AO2 T01510138
Altimeter 29.95"
Temperature 15.1°C (59.2°F)
Wind 320° at 3KT
Clouds scattered at 600ft broken at 1,700ft overcast at 2,500ft
Visibility 10.0mi
Time observed: 2022-07-06T06:15:00Z

KPZQ Airport Details

Status Operational
Activation April 1940
Ownership Public
Usage Public
Chart LAKE HURON
ATC on-site No
Beacon schedule sunset-sunrise
Beacon color clear green

KPZQ Airport Contacts

Owner PRESQUE ISLE COUNTY
Owner address 657 S BRADLEY HWY, ROGERS CITY, MI 49779
Owner phone 989-734-2216
Manager KELLY J. HANSON
Manager address 3100 PTE. AUX BARQUES RD, PORT AUSTIN, MI 48467
Manager phone 989-269-7299

KPZQ Airport (Presque Isle County) Radio Frequencies

KPZQ (Airport) Radio Frequencies

UNICOM N/A
Common traffic advisory frequency (CTAF) 122.9